sensor_id;sensor_type;location;lat;lon;timestamp;P1;durP1;ratioP1;P2;durP2;ratioP2
78778;SDS011;68121;52.404;5.318;2023-04-15T00:00:28;5.95;;;3.00;;
78778;SDS011;68121;52.404;5.318;2023-04-15T00:02:54;10.50;;;3.33;;
78778;SDS011;68121;52.404;5.318;2023-04-15T00:05:20;5.03;;;3.67;;
78778;SDS011;68121;52.404;5.318;2023-04-15T00:07:46;7.65;;;3.67;;
78778;SDS011;68121;52.404;5.318;2023-04-15T00:10:12;4.80;;;3.00;;
78778;SDS011;68121;52.404;5.318;2023-04-15T00:12:41;4.32;;;2.67;;
78778;SDS011;68121;52.404;5.318;2023-04-15T00:15:07;8.15;;;3.10;;
78778;SDS011;68121;52.404;5.318;2023-04-15T00:17:34;6.07;;;3.40;;
78778;SDS011;68121;52.404;5.318;2023-04-15T00:20:00;6.00;;;3.47;;
78778;SDS011;68121;52.404;5.318;2023-04-15T00:22:27;7.70;;;3.08;;
78778;SDS011;68121;52.404;5.318;2023-04-15T00:24:53;5.93;;;3.90;;
78778;SDS011;68121;52.404;5.318;2023-04-15T00:27:19;6.07;;;3.30;;
78778;SDS011;68121;52.404;5.318;2023-04-15T00:29:45;10.63;;;3.15;;
78778;SDS011;68121;52.404;5.318;2023-04-15T00:32:11;6.93;;;3.33;;
78778;SDS011;68121;52.404;5.318;2023-04-15T00:34:37;7.68;;;3.35;;
78778;SDS011;68121;52.404;5.318;2023-04-15T00:37:03;8.05;;;3.22;;
78778;SDS011;68121;52.404;5.318;2023-04-15T00:39:29;4.35;;;3.40;;
78778;SDS011;68121;52.404;5.318;2023-04-15T00:41:56;7.45;;;3.75;;
78778;SDS011;68121;52.404;5.318;2023-04-15T00:44:22;5.75;;;3.67;;
78778;SDS011;68121;52.404;5.318;2023-04-15T00:46:50;7.78;;;2.92;;
78778;SDS011;68121;52.404;5.318;2023-04-15T00:49:16;7.55;;;3.75;;
78778;SDS011;68121;52.404;5.318;2023-04-15T00:51:43;6.75;;;3.53;;
78778;SDS011;68121;52.404;5.318;2023-04-15T00:54:10;6.97;;;3.30;;
78778;SDS011;68121;52.404;5.318;2023-04-15T00:56:37;7.10;;;3.33;;
78778;SDS011;68121;52.404;5.318;2023-04-15T00:59:04;6.28;;;3.33;;
78778;SDS011;68121;52.404;5.318;2023-04-15T01:01:32;6.05;;;3.47;;
78778;SDS011;68121;52.404;5.318;2023-04-15T01:03:59;6.22;;;3.08;;
78778;SDS011;68121;52.404;5.318;2023-04-15T01:06:26;5.38;;;3.60;;
78778;SDS011;68121;52.404;5.318;2023-04-15T01:08:53;8.57;;;4.00;;
78778;SDS011;68121;52.404;5.318;2023-04-15T01:11:20;7.93;;;3.92;;
78778;SDS011;68121;52.404;5.318;2023-04-15T01:13:48;6.03;;;3.50;;
78778;SDS011;68121;52.404;5.318;2023-04-15T01:16:16;6.68;;;3.42;;
78778;SDS011;68121;52.404;5.318;2023-04-15T01:18:43;5.70;;;3.17;;
78778;SDS011;68121;52.404;5.318;2023-04-15T01:21:09;5.35;;;3.33;;
78778;SDS011;68121;52.404;5.318;2023-04-15T01:23:36;7.97;;;3.85;;
78778;SDS011;68121;52.404;5.318;2023-04-15T01:26:03;6.22;;;3.22;;
78778;SDS011;68121;52.404;5.318;2023-04-15T01:28:30;5.45;;;3.30;;
78778;SDS011;68121;52.404;5.318;2023-04-15T01:31:10;9.52;;;3.90;;
78778;SDS011;68121;52.404;5.318;2023-04-15T01:33:38;7.63;;;3.67;;
78778;SDS011;68121;52.404;5.318;2023-04-15T01:36:06;6.20;;;3.83;;
78778;SDS011;68121;52.404;5.318;2023-04-15T01:38:35;6.53;;;3.47;;
78778;SDS011;68121;52.404;5.318;2023-04-15T01:41:02;6.68;;;3.70;;
78778;SDS011;68121;52.404;5.318;2023-04-15T01:43:33;5.10;;;3.42;;
78778;SDS011;68121;52.404;5.318;2023-04-15T01:46:00;6.65;;;3.60;;
78778;SDS011;68121;52.404;5.318;2023-04-15T01:48:27;6.45;;;2.80;;
78778;SDS011;68121;52.404;5.318;2023-04-15T01:50:53;7.13;;;3.60;;
78778;SDS011;68121;52.404;5.318;2023-04-15T01:53:22;7.75;;;3.88;;
78778;SDS011;68121;52.404;5.318;2023-04-15T01:55:49;4.70;;;3.00;;
78778;SDS011;68121;52.404;5.318;2023-04-15T01:58:16;5.18;;;4.28;;
78778;SDS011;68121;52.404;5.318;2023-04-15T02:00:43;5.63;;;3.13;;
78778;SDS011;68121;52.404;5.318;2023-04-15T02:03:09;5.40;;;3.00;;
78778;SDS011;68121;52.404;5.318;2023-04-15T02:05:35;5.22;;;3.55;;
78778;SDS011;68121;52.404;5.318;2023-04-15T02:08:01;5.40;;;3.20;;
78778;SDS011;68121;52.404;5.318;2023-04-15T02:10:28;5.10;;;3.40;;
78778;SDS011;68121;52.404;5.318;2023-04-15T02:12:54;7.57;;;3.42;;
78778;SDS011;68121;52.404;5.318;2023-04-15T02:15:20;5.85;;;3.40;;
78778;SDS011;68121;52.404;5.318;2023-04-15T02:17:47;8.30;;;3.40;;
78778;SDS011;68121;52.404;5.318;2023-04-15T02:20:18;6.43;;;3.47;;
78778;SDS011;68121;52.404;5.318;2023-04-15T02:22:45;6.05;;;3.72;;
78778;SDS011;68121;52.404;5.318;2023-04-15T02:25:13;5.78;;;3.20;;
78778;SDS011;68121;52.404;5.318;2023-04-15T02:27:39;5.78;;;3.40;;
78778;SDS011;68121;52.404;5.318;2023-04-15T02:30:06;7.10;;;3.55;;
78778;SDS011;68121;52.404;5.318;2023-04-15T02:32:33;6.30;;;3.47;;
78778;SDS011;68121;52.404;5.318;2023-04-15T02:35:03;7.95;;;3.35;;
78778;SDS011;68121;52.404;5.318;2023-04-15T02:37:30;6.55;;;3.53;;
78778;SDS011;68121;52.404;5.318;2023-04-15T02:39:57;6.25;;;3.63;;
78778;SDS011;68121;52.404;5.318;2023-04-15T02:42:23;8.25;;;3.50;;
78778;SDS011;68121;52.404;5.318;2023-04-15T02:44:52;9.45;;;3.40;;
78778;SDS011;68121;52.404;5.318;2023-04-15T02:47:19;5.68;;;3.28;;
78778;SDS011;68121;52.404;5.318;2023-04-15T02:49:45;5.40;;;3.10;;
78778;SDS011;68121;52.404;5.318;2023-04-15T02:52:11;5.72;;;3.55;;
78778;SDS011;68121;52.404;5.318;2023-04-15T02:54:38;11.07;;;4.93;;
78778;SDS011;68121;52.404;5.318;2023-04-15T02:57:04;5.13;;;3.08;;
78778;SDS011;68121;52.404;5.318;2023-04-15T02:59:31;7.15;;;3.50;;
78778;SDS011;68121;52.404;5.318;2023-04-15T03:01:57;5.22;;;3.38;;
78778;SDS011;68121;52.404;5.318;2023-04-15T03:04:26;8.32;;;3.75;;
78778;SDS011;68121;52.404;5.318;2023-04-15T03:06:55;8.82;;;3.38;;
78778;SDS011;68121;52.404;5.318;2023-04-15T03:09:21;6.88;;;3.22;;
78778;SDS011;68121;52.404;5.318;2023-04-15T03:11:48;6.70;;;3.67;;
78778;SDS011;68121;52.404;5.318;2023-04-15T03:14:15;6.47;;;3.40;;
78778;SDS011;68121;52.404;5.318;2023-04-15T03:16:41;6.65;;;3.70;;
78778;SDS011;68121;52.404;5.318;2023-04-15T03:19:07;5.63;;;3.72;;
78778;SDS011;68121;52.404;5.318;2023-04-15T03:21:33;7.60;;;3.47;;
78778;SDS011;68121;52.404;5.318;2023-04-15T03:23:59;6.68;;;3.88;;
78778;SDS011;68121;52.404;5.318;2023-04-15T03:26:26;6.90;;;3.15;;
78778;SDS011;68121;52.404;5.318;2023-04-15T03:28:53;8.10;;;3.53;;
78778;SDS011;68121;52.404;5.318;2023-04-15T03:31:20;8.13;;;3.75;;
78778;SDS011;68121;52.404;5.318;2023-04-15T03:33:46;5.75;;;3.65;;
78778;SDS011;68121;52.404;5.318;2023-04-15T03:36:12;9.68;;;4.13;;
78778;SDS011;68121;52.404;5.318;2023-04-15T03:38:38;7.63;;;3.95;;
78778;SDS011;68121;52.404;5.318;2023-04-15T03:41:04;7.50;;;4.28;;
78778;SDS011;68121;52.404;5.318;2023-04-15T03:43:30;8.02;;;3.30;;
78778;SDS011;68121;52.404;5.318;2023-04-15T03:45:56;5.13;;;3.40;;
78778;SDS011;68121;52.404;5.318;2023-04-15T03:48:22;6.22;;;3.80;;
78778;SDS011;68121;52.404;5.318;2023-04-15T03:50:48;8.82;;;3.50;;
78778;SDS011;68121;52.404;5.318;2023-04-15T03:53:14;7.43;;;3.90;;
78778;SDS011;68121;52.404;5.318;2023-04-15T03:55:40;6.32;;;4.30;;
78778;SDS011;68121;52.404;5.318;2023-04-15T03:58:06;5.95;;;3.83;;
78778;SDS011;68121;52.404;5.318;2023-04-15T04:00:33;5.93;;;3.83;;
78778;SDS011;68121;52.404;5.318;2023-04-15T04:02:59;7.85;;;4.47;;
78778;SDS011;68121;52.404;5.318;2023-04-15T04:05:26;8.88;;;4.80;;
78778;SDS011;68121;52.404;5.318;2023-04-15T04:07:52;7.07;;;4.65;;
78778;SDS011;68121;52.404;5.318;2023-04-15T04:10:18;5.75;;;4.15;;
78778;SDS011;68121;52.404;5.318;2023-04-15T04:12:44;6.65;;;3.78;;
78778;SDS011;68121;52.404;5.318;2023-04-15T04:15:10;8.73;;;4.45;;
78778;SDS011;68121;52.404;5.318;2023-04-15T04:17:36;7.63;;;4.97;;
78778;SDS011;68121;52.404;5.318;2023-04-15T04:20:02;9.98;;;4.35;;
78778;SDS011;68121;52.404;5.318;2023-04-15T04:22:30;7.28;;;4.25;;
78778;SDS011;68121;52.404;5.318;2023-04-15T04:24:56;9.32;;;5.35;;
78778;SDS011;68121;52.404;5.318;2023-04-15T04:27:24;8.85;;;4.80;;
78778;SDS011;68121;52.404;5.318;2023-04-15T04:29:50;8.75;;;4.70;;
78778;SDS011;68121;52.404;5.318;2023-04-15T04:32:16;11.00;;;6.32;;
78778;SDS011;68121;52.404;5.318;2023-04-15T04:34:42;9.38;;;5.65;;
78778;SDS011;68121;52.404;5.318;2023-04-15T04:37:08;9.35;;;5.65;;
78778;SDS011;68121;52.404;5.318;2023-04-15T04:39:34;10.52;;;6.05;;
78778;SDS011;68121;52.404;5.318;2023-04-15T04:42:00;11.68;;;5.20;;
78778;SDS011;68121;52.404;5.318;2023-04-15T04:44:26;10.57;;;5.68;;
78778;SDS011;68121;52.404;5.318;2023-04-15T04:46:52;10.18;;;5.30;;
78778;SDS011;68121;52.404;5.318;2023-04-15T04:49:18;8.48;;;5.38;;
78778;SDS011;68121;52.404;5.318;2023-04-15T04:51:44;9.40;;;6.15;;
78778;SDS011;68121;52.404;5.318;2023-04-15T04:54:12;8.73;;;5.55;;
78778;SDS011;68121;52.404;5.318;2023-04-15T04:56:39;11.45;;;5.57;;
78778;SDS011;68121;52.404;5.318;2023-04-15T04:59:05;9.48;;;5.32;;
78778;SDS011;68121;52.404;5.318;2023-04-15T05:01:32;11.82;;;6.22;;
78778;SDS011;68121;52.404;5.318;2023-04-15T05:03:58;10.35;;;6.30;;
78778;SDS011;68121;52.404;5.318;2023-04-15T05:06:24;13.00;;;6.30;;
78778;SDS011;68121;52.404;5.318;2023-04-15T05:08:50;11.40;;;5.82;;
78778;SDS011;68121;52.404;5.318;2023-04-15T05:11:16;13.30;;;6.82;;
78778;SDS011;68121;52.404;5.318;2023-04-15T05:13:43;11.00;;;6.32;;
78778;SDS011;68121;52.404;5.318;2023-04-15T05:16:09;10.65;;;5.82;;
78778;SDS011;68121;52.404;5.318;2023-04-15T05:18:35;9.93;;;6.07;;
78778;SDS011;68121;52.404;5.318;2023-04-15T05:21:02;10.13;;;5.82;;
78778;SDS011;68121;52.404;5.318;2023-04-15T05:23:28;10.45;;;6.47;;
78778;SDS011;68121;52.404;5.318;2023-04-15T05:25:54;8.70;;;6.05;;
78778;SDS011;68121;52.404;5.318;2023-04-15T05:28:20;9.05;;;6.15;;
78778;SDS011;68121;52.404;5.318;2023-04-15T05:30:46;11.52;;;6.45;;
78778;SDS011;68121;52.404;5.318;2023-04-15T05:33:12;12.02;;;6.82;;
78778;SDS011;68121;52.404;5.318;2023-04-15T05:35:39;8.75;;;5.47;;
78778;SDS011;68121;52.404;5.318;2023-04-15T05:38:05;9.50;;;6.05;;
78778;SDS011;68121;52.404;5.318;2023-04-15T05:40:31;10.13;;;5.90;;
78778;SDS011;68121;52.404;5.318;2023-04-15T05:42:57;10.65;;;6.18;;
78778;SDS011;68121;52.404;5.318;2023-04-15T05:45:23;11.13;;;5.75;;
78778;SDS011;68121;52.404;5.318;2023-04-15T05:47:49;9.60;;;6.03;;
78778;SDS011;68121;52.404;5.318;2023-04-15T05:50:18;9.02;;;5.97;;
78778;SDS011;68121;52.404;5.318;2023-04-15T05:52:45;10.60;;;6.22;;
78778;SDS011;68121;52.404;5.318;2023-04-15T05:55:12;12.45;;;5.95;;
78778;SDS011;68121;52.404;5.318;2023-04-15T05:57:38;11.55;;;5.93;;
78778;SDS011;68121;52.404;5.318;2023-04-15T06:00:05;9.65;;;5.50;;
78778;SDS011;68121;52.404;5.318;2023-04-15T06:02:31;10.60;;;5.95;;
78778;SDS011;68121;52.404;5.318;2023-04-15T06:04:57;9.38;;;5.30;;
78778;SDS011;68121;52.404;5.318;2023-04-15T06:07:23;8.70;;;5.53;;
78778;SDS011;68121;52.404;5.318;2023-04-15T06:09:49;8.93;;;5.07;;
78778;SDS011;68121;52.404;5.318;2023-04-15T06:12:16;11.05;;;6.10;;
78778;SDS011;68121;52.404;5.318;2023-04-15T06:14:42;9.18;;;5.45;;
78778;SDS011;68121;52.404;5.318;2023-04-15T06:17:08;8.20;;;5.88;;
78778;SDS011;68121;52.404;5.318;2023-04-15T06:19:34;10.70;;;6.03;;
78778;SDS011;68121;52.404;5.318;2023-04-15T06:22:01;9.50;;;5.50;;
78778;SDS011;68121;52.404;5.318;2023-04-15T06:24:27;11.13;;;5.80;;
78778;SDS011;68121;52.404;5.318;2023-04-15T06:26:53;11.75;;;6.10;;
78778;SDS011;68121;52.404;5.318;2023-04-15T06:29:20;9.07;;;4.97;;
78778;SDS011;68121;52.404;5.318;2023-04-15T06:31:46;8.57;;;5.38;;
78778;SDS011;68121;52.404;5.318;2023-04-15T06:34:13;10.07;;;5.30;;
78778;SDS011;68121;52.404;5.318;2023-04-15T06:36:39;8.93;;;5.30;;
78778;SDS011;68121;52.404;5.318;2023-04-15T06:39:05;9.05;;;5.50;;
78778;SDS011;68121;52.404;5.318;2023-04-15T06:41:31;8.57;;;5.82;;
78778;SDS011;68121;52.404;5.318;2023-04-15T06:43:58;11.30;;;5.53;;
78778;SDS011;68121;52.404;5.318;2023-04-15T06:46:24;9.57;;;5.75;;
78778;SDS011;68121;52.404;5.318;2023-04-15T06:48:50;10.02;;;6.10;;
78778;SDS011;68121;52.404;5.318;2023-04-15T06:51:16;10.82;;;6.53;;
78778;SDS011;68121;52.404;5.318;2023-04-15T06:53:42;10.88;;;6.30;;
78778;SDS011;68121;52.404;5.318;2023-04-15T06:56:09;10.48;;;5.82;;
78778;SDS011;68121;52.404;5.318;2023-04-15T06:58:35;10.55;;;5.78;;
78778;SDS011;68121;52.404;5.318;2023-04-15T07:01:01;13.38;;;6.72;;
78778;SDS011;68121;52.404;5.318;2023-04-15T07:03:28;9.43;;;5.95;;
78778;SDS011;68121;52.404;5.318;2023-04-15T07:05:54;8.90;;;5.50;;
78778;SDS011;68121;52.404;5.318;2023-04-15T07:08:21;10.30;;;5.22;;
78778;SDS011;68121;52.404;5.318;2023-04-15T07:10:47;8.38;;;5.05;;
78778;SDS011;68121;52.404;5.318;2023-04-15T07:13:13;8.25;;;5.00;;
78778;SDS011;68121;52.404;5.318;2023-04-15T07:15:39;9.85;;;4.63;;
78778;SDS011;68121;52.404;5.318;2023-04-15T07:18:05;8.43;;;5.15;;
78778;SDS011;68121;52.404;5.318;2023-04-15T07:20:31;8.13;;;4.70;;
78778;SDS011;68121;52.404;5.318;2023-04-15T07:22:57;8.30;;;4.30;;
78778;SDS011;68121;52.404;5.318;2023-04-15T07:25:23;11.07;;;4.57;;
78778;SDS011;68121;52.404;5.318;2023-04-15T07:27:50;8.70;;;4.82;;
78778;SDS011;68121;52.404;5.318;2023-04-15T07:30:17;7.85;;;4.28;;
78778;SDS011;68121;52.404;5.318;2023-04-15T07:32:43;6.45;;;3.75;;
78778;SDS011;68121;52.404;5.318;2023-04-15T07:35:09;6.75;;;3.65;;
78778;SDS011;68121;52.404;5.318;2023-04-15T07:37:36;7.05;;;3.67;;
78778;SDS011;68121;52.404;5.318;2023-04-15T07:40:02;6.15;;;3.53;;
78778;SDS011;68121;52.404;5.318;2023-04-15T07:42:29;5.82;;;3.50;;
78778;SDS011;68121;52.404;5.318;2023-04-15T07:44:55;5.30;;;3.30;;
78778;SDS011;68121;52.404;5.318;2023-04-15T07:47:21;6.03;;;3.28;;
78778;SDS011;68121;52.404;5.318;2023-04-15T07:49:47;6.00;;;3.15;;
78778;SDS011;68121;52.404;5.318;2023-04-15T07:52:15;6.38;;;3.30;;
78778;SDS011;68121;52.404;5.318;2023-04-15T07:54:41;8.25;;;3.30;;
78778;SDS011;68121;52.404;5.318;2023-04-15T07:57:07;6.68;;;3.65;;
78778;SDS011;68121;52.404;5.318;2023-04-15T07:59:33;7.60;;;4.10;;
78778;SDS011;68121;52.404;5.318;2023-04-15T08:02:00;7.30;;;4.10;;
78778;SDS011;68121;52.404;5.318;2023-04-15T08:04:26;10.25;;;4.82;;
78778;SDS011;68121;52.404;5.318;2023-04-15T08:06:53;7.63;;;4.70;;
78778;SDS011;68121;52.404;5.318;2023-04-15T08:09:19;9.23;;;4.90;;
78778;SDS011;68121;52.404;5.318;2023-04-15T08:11:47;9.02;;;5.45;;
78778;SDS011;68121;52.404;5.318;2023-04-15T08:14:13;9.23;;;5.47;;
78778;SDS011;68121;52.404;5.318;2023-04-15T08:16:40;10.00;;;4.97;;
78778;SDS011;68121;52.404;5.318;2023-04-15T08:19:06;8.30;;;4.97;;
78778;SDS011;68121;52.404;5.318;2023-04-15T08:21:32;9.05;;;5.00;;
78778;SDS011;68121;52.404;5.318;2023-04-15T08:23:58;9.48;;;5.40;;
78778;SDS011;68121;52.404;5.318;2023-04-15T08:26:24;12.23;;;5.70;;
78778;SDS011;68121;52.404;5.318;2023-04-15T08:28:50;11.90;;;5.40;;
78778;SDS011;68121;52.404;5.318;2023-04-15T08:31:17;12.98;;;4.95;;
78778;SDS011;68121;52.404;5.318;2023-04-15T08:33:44;7.70;;;4.25;;
78778;SDS011;68121;52.404;5.318;2023-04-15T08:36:10;7.53;;;3.83;;
78778;SDS011;68121;52.404;5.318;2023-04-15T08:38:38;6.75;;;3.33;;
78778;SDS011;68121;52.404;5.318;2023-04-15T08:41:10;5.38;;;2.85;;
78778;SDS011;68121;52.404;5.318;2023-04-15T08:43:52;3.88;;;2.63;;
78778;SDS011;68121;52.404;5.318;2023-04-15T08:46:19;4.20;;;2.35;;
78778;SDS011;68121;52.404;5.318;2023-04-15T08:48:46;5.30;;;2.50;;
78778;SDS011;68121;52.404;5.318;2023-04-15T08:51:13;3.88;;;2.03;;
78778;SDS011;68121;52.404;5.318;2023-04-15T08:53:41;3.90;;;2.25;;
78778;SDS011;68121;52.404;5.318;2023-04-15T08:56:08;4.70;;;2.38;;
78778;SDS011;68121;52.404;5.318;2023-04-15T08:58:37;3.88;;;2.63;;
78778;SDS011;68121;52.404;5.318;2023-04-15T09:01:03;4.90;;;2.53;;
78778;SDS011;68121;52.404;5.318;2023-04-15T09:03:29;4.38;;;2.75;;
78778;SDS011;68121;52.404;5.318;2023-04-15T09:05:56;6.32;;;2.90;;
78778;SDS011;68121;52.404;5.318;2023-04-15T09:08:22;6.68;;;2.70;;
78778;SDS011;68121;52.404;5.318;2023-04-15T09:10:48;3.50;;;2.53;;
78778;SDS011;68121;52.404;5.318;2023-04-15T09:13:17;5.55;;;3.15;;
78778;SDS011;68121;52.404;5.318;2023-04-15T09:15:43;5.40;;;2.80;;
78778;SDS011;68121;52.404;5.318;2023-04-15T09:18:13;4.78;;;2.78;;
78778;SDS011;68121;52.404;5.318;2023-04-15T09:20:55;6.60;;;2.70;;
78778;SDS011;68121;52.404;5.318;2023-04-15T09:23:36;6.38;;;2.88;;
78778;SDS011;68121;52.404;5.318;2023-04-15T09:26:04;4.68;;;2.40;;
78778;SDS011;68121;52.404;5.318;2023-04-15T09:28:30;5.40;;;3.40;;
78778;SDS011;68121;52.404;5.318;2023-04-15T09:30:57;4.93;;;3.00;;
78778;SDS011;68121;52.404;5.318;2023-04-15T09:33:24;5.85;;;3.13;;
78778;SDS011;68121;52.404;5.318;2023-04-15T09:35:58;5.68;;;3.67;;
78778;SDS011;68121;52.404;5.318;2023-04-15T09:38:26;7.85;;;4.07;;
78778;SDS011;68121;52.404;5.318;2023-04-15T09:40:53;6.35;;;3.85;;
78778;SDS011;68121;52.404;5.318;2023-04-15T09:43:19;7.03;;;2.97;;
78778;SDS011;68121;52.404;5.318;2023-04-15T09:45:50;6.70;;;3.40;;
78778;SDS011;68121;52.404;5.318;2023-04-15T09:48:22;7.22;;;3.50;;
78778;SDS011;68121;52.404;5.318;2023-04-15T09:50:51;5.82;;;3.65;;
78778;SDS011;68121;52.404;5.318;2023-04-15T09:53:22;6.05;;;3.72;;
78778;SDS011;68121;52.404;5.318;2023-04-15T09:55:50;5.65;;;3.85;;
78778;SDS011;68121;52.404;5.318;2023-04-15T10:00:51;6.88;;;4.28;;
78778;SDS011;68121;52.404;5.318;2023-04-15T10:05:50;7.07;;;3.92;;
78778;SDS011;68121;52.404;5.318;2023-04-15T10:08:21;8.77;;;4.25;;
78778;SDS011;68121;52.404;5.318;2023-04-15T10:10:49;7.28;;;4.20;;
78778;SDS011;68121;52.404;5.318;2023-04-15T10:13:20;7.80;;;4.05;;
78778;SDS011;68121;52.404;5.318;2023-04-15T10:15:49;6.43;;;3.58;;
78778;SDS011;68121;52.404;5.318;2023-04-15T10:18:19;7.80;;;3.92;;
78778;SDS011;68121;52.404;5.318;2023-04-15T10:20:48;7.28;;;4.03;;
78778;SDS011;68121;52.404;5.318;2023-04-15T10:23:15;7.78;;;4.63;;
78778;SDS011;68121;52.404;5.318;2023-04-15T10:25:42;8.07;;;4.50;;
78778;SDS011;68121;52.404;5.318;2023-04-15T10:28:08;5.47;;;3.80;;
78778;SDS011;68121;52.404;5.318;2023-04-15T10:30:35;6.07;;;3.58;;
78778;SDS011;68121;52.404;5.318;2023-04-15T10:33:02;4.47;;;3.00;;
78778;SDS011;68121;52.404;5.318;2023-04-15T10:35:30;7.88;;;1.95;;
78778;SDS011;68121;52.404;5.318;2023-04-15T10:37:58;4.05;;;1.75;;
78778;SDS011;68121;52.404;5.318;2023-04-15T10:40:28;2.40;;;1.77;;
78778;SDS011;68121;52.404;5.318;2023-04-15T10:43:01;3.67;;;1.50;;
78778;SDS011;68121;52.404;5.318;2023-04-15T10:45:35;2.00;;;1.40;;
78778;SDS011;68121;52.404;5.318;2023-04-15T10:48:03;2.75;;;1.65;;
78778;SDS011;68121;52.404;5.318;2023-04-15T10:50:31;2.15;;;1.70;;
78778;SDS011;68121;52.404;5.318;2023-04-15T10:52:58;3.00;;;1.83;;
78778;SDS011;68121;52.404;5.318;2023-04-15T10:55:30;3.63;;;1.85;;
78778;SDS011;68121;52.404;5.318;2023-04-15T10:57:58;3.08;;;2.10;;
78778;SDS011;68121;52.404;5.318;2023-04-15T11:00:29;5.50;;;2.22;;
78778;SDS011;68121;52.404;5.318;2023-04-15T11:03:06;3.25;;;1.90;;
78778;SDS011;68121;52.404;5.318;2023-04-15T11:08:16;5.10;;;2.28;;
78778;SDS011;68121;52.404;5.318;2023-04-15T11:15:38;5.38;;;2.78;;
78778;SDS011;68121;52.404;5.318;2023-04-15T11:20:38;9.73;;;2.10;;
78778;SDS011;68121;52.404;5.318;2023-04-15T11:23:06;5.25;;;2.35;;
78778;SDS011;68121;52.404;5.318;2023-04-15T11:25:33;3.03;;;1.80;;
78778;SDS011;68121;52.404;5.318;2023-04-15T11:28:00;4.30;;;1.90;;
78778;SDS011;68121;52.404;5.318;2023-04-15T11:30:28;2.97;;;1.80;;
78778;SDS011;68121;52.404;5.318;2023-04-15T11:32:59;8.27;;;1.95;;
78778;SDS011;68121;52.404;5.318;2023-04-15T11:35:26;3.67;;;2.00;;
78778;SDS011;68121;52.404;5.318;2023-04-15T11:37:53;3.40;;;1.63;;
78778;SDS011;68121;52.404;5.318;2023-04-15T11:40:26;3.75;;;1.30;;
78778;SDS011;68121;52.404;5.318;2023-04-15T11:45:30;3.10;;;1.98;;
78778;SDS011;68121;52.404;5.318;2023-04-15T11:50:32;3.95;;;1.50;;
78778;SDS011;68121;52.404;5.318;2023-04-15T11:53:00;4.80;;;1.63;;
78778;SDS011;68121;52.404;5.318;2023-04-15T11:55:30;2.95;;;1.58;;
78778;SDS011;68121;52.404;5.318;2023-04-15T11:58:17;2.42;;;1.50;;
78778;SDS011;68121;52.404;5.318;2023-04-15T12:00:51;4.28;;;1.80;;
78778;SDS011;68121;52.404;5.318;2023-04-15T12:06:11;4.22;;;1.75;;
78778;SDS011;68121;52.404;5.318;2023-04-15T12:08:58;3.05;;;1.50;;
78778;SDS011;68121;52.404;5.318;2023-04-15T12:13:55;2.80;;;1.80;;
78778;SDS011;68121;52.404;5.318;2023-04-15T12:16:23;2.50;;;1.55;;
78778;SDS011;68121;52.404;5.318;2023-04-15T12:18:51;6.43;;;1.70;;
78778;SDS011;68121;52.404;5.318;2023-04-15T12:21:20;2.58;;;1.75;;
78778;SDS011;68121;52.404;5.318;2023-04-15T12:23:48;3.50;;;2.10;;
78778;SDS011;68121;52.404;5.318;2023-04-15T12:26:16;2.60;;;1.67;;
78778;SDS011;68121;52.404;5.318;2023-04-15T12:28:53;4.57;;;2.08;;
78778;SDS011;68121;52.404;5.318;2023-04-15T12:31:20;3.65;;;1.73;;
78778;SDS011;68121;52.404;5.318;2023-04-15T12:33:48;2.25;;;1.55;;
78778;SDS011;68121;52.404;5.318;2023-04-15T12:36:14;1.92;;;1.25;;
78778;SDS011;68121;52.404;5.318;2023-04-15T12:38:41;3.95;;;1.70;;
78778;SDS011;68121;52.404;5.318;2023-04-15T12:41:07;2.80;;;1.45;;
78778;SDS011;68121;52.404;5.318;2023-04-15T12:43:33;3.53;;;1.48;;
78778;SDS011;68121;52.404;5.318;2023-04-15T12:45:59;4.82;;;1.40;;
78778;SDS011;68121;52.404;5.318;2023-04-15T12:48:25;4.50;;;1.50;;
78778;SDS011;68121;52.404;5.318;2023-04-15T12:50:51;3.35;;;1.45;;
78778;SDS011;68121;52.404;5.318;2023-04-15T12:53:17;4.38;;;1.08;;
78778;SDS011;68121;52.404;5.318;2023-04-15T12:55:43;2.42;;;1.13;;
78778;SDS011;68121;52.404;5.318;2023-04-15T12:58:09;1.65;;;1.10;;
78778;SDS011;68121;52.404;5.318;2023-04-15T13:00:36;5.32;;;1.10;;
78778;SDS011;68121;52.404;5.318;2023-04-15T13:03:03;2.15;;;1.02;;
78778;SDS011;68121;52.404;5.318;2023-04-15T13:05:29;1.73;;;0.90;;
78778;SDS011;68121;52.404;5.318;2023-04-15T13:07:55;1.27;;;0.85;;
78778;SDS011;68121;52.404;5.318;2023-04-15T13:10:21;4.80;;;1.10;;
78778;SDS011;68121;52.404;5.318;2023-04-15T13:12:48;2.28;;;0.65;;
78778;SDS011;68121;52.404;5.318;2023-04-15T13:15:21;1.08;;;0.68;;
78778;SDS011;68121;52.404;5.318;2023-04-15T13:17:47;1.58;;;0.80;;
78778;SDS011;68121;52.404;5.318;2023-04-15T13:20:14;1.95;;;0.70;;
78778;SDS011;68121;52.404;5.318;2023-04-15T13:22:40;1.02;;;0.68;;
78778;SDS011;68121;52.404;5.318;2023-04-15T13:25:07;1.55;;;0.73;;
78778;SDS011;68121;52.404;5.318;2023-04-15T13:27:33;1.58;;;0.88;;
78778;SDS011;68121;52.404;5.318;2023-04-15T13:29:59;1.13;;;0.73;;
78778;SDS011;68121;52.404;5.318;2023-04-15T13:32:26;5.68;;;1.00;;
78778;SDS011;68121;52.404;5.318;2023-04-15T13:34:54;1.63;;;0.73;;
78778;SDS011;68121;52.404;5.318;2023-04-15T13:37:24;3.17;;;1.00;;
78778;SDS011;68121;52.404;5.318;2023-04-15T13:39:54;1.00;;;0.70;;
78778;SDS011;68121;52.404;5.318;2023-04-15T13:42:21;2.10;;;1.20;;
78778;SDS011;68121;52.404;5.318;2023-04-15T13:44:48;2.40;;;1.20;;
78778;SDS011;68121;52.404;5.318;2023-04-15T13:47:16;2.58;;;1.05;;
78778;SDS011;68121;52.404;5.318;2023-04-15T13:49:43;3.30;;;0.88;;
78778;SDS011;68121;52.404;5.318;2023-04-15T13:52:10;1.35;;;0.70;;
78778;SDS011;68121;52.404;5.318;2023-04-15T13:54:36;2.20;;;0.75;;
78778;SDS011;68121;52.404;5.318;2023-04-15T13:57:02;5.82;;;1.15;;
78778;SDS011;68121;52.404;5.318;2023-04-15T13:59:29;2.13;;;0.50;;
78778;SDS011;68121;52.404;5.318;2023-04-15T14:01:55;2.45;;;0.80;;
78778;SDS011;68121;52.404;5.318;2023-04-15T14:04:21;5.00;;;0.50;;
78778;SDS011;68121;52.404;5.318;2023-04-15T14:06:47;1.95;;;0.82;;
78778;SDS011;68121;52.404;5.318;2023-04-15T14:09:14;2.25;;;0.65;;
78778;SDS011;68121;52.404;5.318;2023-04-15T14:11:40;3.50;;;0.82;;
78778;SDS011;68121;52.404;5.318;2023-04-15T14:14:06;2.95;;;1.90;;
78778;SDS011;68121;52.404;5.318;2023-04-15T14:16:32;1.38;;;0.35;;
78778;SDS011;68121;52.404;5.318;2023-04-15T14:18:59;3.38;;;1.00;;
78778;SDS011;68121;52.404;5.318;2023-04-15T14:21:26;7.80;;;1.55;;
78778;SDS011;68121;52.404;5.318;2023-04-15T14:23:52;3.08;;;0.47;;
78778;SDS011;68121;52.404;5.318;2023-04-15T14:26:19;2.20;;;0.75;;
78778;SDS011;68121;52.404;5.318;2023-04-15T14:28:45;3.20;;;0.70;;
78778;SDS011;68121;52.404;5.318;2023-04-15T14:31:12;4.25;;;0.82;;
78778;SDS011;68121;52.404;5.318;2023-04-15T14:33:39;4.47;;;1.08;;
78778;SDS011;68121;52.404;5.318;2023-04-15T14:36:05;3.05;;;0.85;;
78778;SDS011;68121;52.404;5.318;2023-04-15T14:38:35;2.92;;;0.70;;
78778;SDS011;68121;52.404;5.318;2023-04-15T14:41:03;3.97;;;0.90;;
78778;SDS011;68121;52.404;5.318;2023-04-15T14:43:29;0.73;;;0.47;;
78778;SDS011;68121;52.404;5.318;2023-04-15T14:45:55;1.73;;;0.60;;
78778;SDS011;68121;52.404;5.318;2023-04-15T14:48:21;5.30;;;1.00;;
78778;SDS011;68121;52.404;5.318;2023-04-15T14:50:47;3.78;;;0.90;;
78778;SDS011;68121;52.404;5.318;2023-04-15T14:53:14;5.65;;;0.75;;
78778;SDS011;68121;52.404;5.318;2023-04-15T14:55:40;1.50;;;0.50;;
78778;SDS011;68121;52.404;5.318;2023-04-15T14:58:06;2.60;;;0.60;;
78778;SDS011;68121;52.404;5.318;2023-04-15T15:00:35;1.42;;;0.50;;
78778;SDS011;68121;52.404;5.318;2023-04-15T15:03:04;2.92;;;0.63;;
78778;SDS011;68121;52.404;5.318;2023-04-15T15:05:54;4.38;;;0.80;;
78778;SDS011;68121;52.404;5.318;2023-04-15T15:08:22;2.53;;;0.63;;
78778;SDS011;68121;52.404;5.318;2023-04-15T15:10:48;2.13;;;0.57;;